sensor_id;sensor_type;location;lat;lon;timestamp;temperature;humidity
21568;DHT22;10944;42.590;12.630;2023-04-25T00:01:17;11.10;99.90
21568;DHT22;10944;42.590;12.630;2023-04-25T00:03:44;11.10;99.90
21568;DHT22;10944;42.590;12.630;2023-04-25T00:06:11;10.90;99.90
21568;DHT22;10944;42.590;12.630;2023-04-25T00:08:37;10.80;99.90
21568;DHT22;10944;42.590;12.630;2023-04-25T00:11:03;10.80;99.90
21568;DHT22;10944;42.590;12.630;2023-04-25T00:13:28;10.70;99.90
21568;DHT22;10944;42.590;12.630;2023-04-25T00:15:55;10.70;99.90
21568;DHT22;10944;42.590;12.630;2023-04-25T00:18:22;10.70;99.90
21568;DHT22;10944;42.590;12.630;2023-04-25T00:20:48;10.60;99.90
21568;DHT22;10944;42.590;12.630;2023-04-25T00:23:14;10.60;99.90
21568;DHT22;10944;42.590;12.630;2023-04-25T00:25:52;10.60;99.90
21568;DHT22;10944;42.590;12.630;2023-04-25T00:28:18;10.60;99.90
21568;DHT22;10944;42.590;12.630;2023-04-25T00:30:43;10.60;99.90
21568;DHT22;10944;42.590;12.630;2023-04-25T00:33:09;10.50;99.90
21568;DHT22;10944;42.590;12.630;2023-04-25T00:35:35;10.40;99.90
21568;DHT22;10944;42.590;12.630;2023-04-25T00:38:01;10.40;99.90
21568;DHT22;10944;42.590;12.630;2023-04-25T00:40:28;10.40;99.90
21568;DHT22;10944;42.590;12.630;2023-04-25T00:42:54;10.40;99.90
21568;DHT22;10944;42.590;12.630;2023-04-25T00:45:20;10.50;99.90
21568;DHT22;10944;42.590;12.630;2023-04-25T00:47:46;10.50;99.90
21568;DHT22;10944;42.590;12.630;2023-04-25T00:50:13;10.40;99.90
21568;DHT22;10944;42.590;12.630;2023-04-25T00:52:43;10.40;99.90
21568;DHT22;10944;42.590;12.630;2023-04-25T00:55:10;10.40;99.90
21568;DHT22;10944;42.590;12.630;2023-04-25T00:57:36;10.40;99.90
21568;DHT22;10944;42.590;12.630;2023-04-25T01:00:04;10.20;99.90
21568;DHT22;10944;42.590;12.630;2023-04-25T01:02:32;10.10;99.90
21568;DHT22;10944;42.590;12.630;2023-04-25T01:04:58;10.10;99.90
21568;DHT22;10944;42.590;12.630;2023-04-25T01:07:25;10.10;99.90
21568;DHT22;10944;42.590;12.630;2023-04-25T01:09:54;10.00;99.90
21568;DHT22;10944;42.590;12.630;2023-04-25T01:12:20;9.90;99.90
21568;DHT22;10944;42.590;12.630;2023-04-25T01:14:46;9.90;99.90
21568;DHT22;10944;42.590;12.630;2023-04-25T01:17:12;9.90;99.90
21568;DHT22;10944;42.590;12.630;2023-04-25T01:19:38;10.00;99.90
21568;DHT22;10944;42.590;12.630;2023-04-25T01:22:05;9.90;99.90
21568;DHT22;10944;42.590;12.630;2023-04-25T01:24:32;9.90;99.90
21568;DHT22;10944;42.590;12.630;2023-04-25T01:26:58;9.80;99.90
21568;DHT22;10944;42.590;12.630;2023-04-25T01:29:26;9.70;99.90
21568;DHT22;10944;42.590;12.630;2023-04-25T01:31:52;9.70;99.90
21568;DHT22;10944;42.590;12.630;2023-04-25T01:34:18;9.70;99.90
21568;DHT22;10944;42.590;12.630;2023-04-25T01:36:44;9.80;99.90
21568;DHT22;10944;42.590;12.630;2023-04-25T01:39:10;9.90;99.90
21568;DHT22;10944;42.590;12.630;2023-04-25T01:41:36;9.80;99.90
21568;DHT22;10944;42.590;12.630;2023-04-25T01:44:02;9.80;99.90
21568;DHT22;10944;42.590;12.630;2023-04-25T01:46:28;9.80;99.90
21568;DHT22;10944;42.590;12.630;2023-04-25T01:48:54;9.70;99.90
21568;DHT22;10944;42.590;12.630;2023-04-25T01:51:20;9.70;99.90
21568;DHT22;10944;42.590;12.630;2023-04-25T01:53:46;9.70;99.90
21568;DHT22;10944;42.590;12.630;2023-04-25T01:56:12;9.60;99.90
21568;DHT22;10944;42.590;12.630;2023-04-25T01:58:37;9.60;99.90
21568;DHT22;10944;42.590;12.630;2023-04-25T02:01:03;9.50;99.90
21568;DHT22;10944;42.590;12.630;2023-04-25T02:03:30;9.40;99.90
21568;DHT22;10944;42.590;12.630;2023-04-25T02:05:56;9.40;99.90
21568;DHT22;10944;42.590;12.630;2023-04-25T02:08:22;9.40;99.90
21568;DHT22;10944;42.590;12.630;2023-04-25T02:10:48;9.40;99.90
21568;DHT22;10944;42.590;12.630;2023-04-25T02:13:13;9.60;99.90
21568;DHT22;10944;42.590;12.630;2023-04-25T02:15:39;9.50;99.90
21568;DHT22;10944;42.590;12.630;2023-04-25T02:18:05;9.50;99.90
21568;DHT22;10944;42.590;12.630;2023-04-25T02:20:32;9.50;99.90
21568;DHT22;10944;42.590;12.630;2023-04-25T02:22:58;9.50;99.90
21568;DHT22;10944;42.590;12.630;2023-04-25T02:25:24;9.60;99.90
21568;DHT22;10944;42.590;12.630;2023-04-25T02:27:50;9.60;99.90
21568;DHT22;10944;42.590;12.630;2023-04-25T02:30:16;9.70;99.90
21568;DHT22;10944;42.590;12.630;2023-04-25T02:32:42;9.70;99.90
21568;DHT22;10944;42.590;12.630;2023-04-25T02:35:08;9.60;99.90
21568;DHT22;10944;42.590;12.630;2023-04-25T02:37:36;9.60;99.90
21568;DHT22;10944;42.590;12.630;2023-04-25T02:40:01;9.60;99.90
21568;DHT22;10944;42.590;12.630;2023-04-25T02:42:28;9.60;99.90
21568;DHT22;10944;42.590;12.630;2023-04-25T02:44:54;9.60;99.90
21568;DHT22;10944;42.590;12.630;2023-04-25T02:47:20;9.60;99.90
21568;DHT22;10944;42.590;12.630;2023-04-25T02:49:45;9.60;99.90
21568;DHT22;10944;42.590;12.630;2023-04-25T02:52:12;9.60;99.90
21568;DHT22;10944;42.590;12.630;2023-04-25T02:54:39;9.60;99.90
21568;DHT22;10944;42.590;12.630;2023-04-25T02:57:05;9.50;99.90
21568;DHT22;10944;42.590;12.630;2023-04-25T02:59:31;9.50;99.90
21568;DHT22;10944;42.590;12.630;2023-04-25T03:01:56;9.50;99.90
21568;DHT22;10944;42.590;12.630;2023-04-25T03:04:22;9.50;99.90
21568;DHT22;10944;42.590;12.630;2023-04-25T03:06:49;9.50;99.90
21568;DHT22;10944;42.590;12.630;2023-04-25T03:09:16;9.50;99.90
21568;DHT22;10944;42.590;12.630;2023-04-25T03:11:42;9.50;99.90
21568;DHT22;10944;42.590;12.630;2023-04-25T03:14:07;9.50;99.90
21568;DHT22;10944;42.590;12.630;2023-04-25T03:16:33;9.50;99.90
21568;DHT22;10944;42.590;12.630;2023-04-25T03:18:59;9.50;99.90
21568;DHT22;10944;42.590;12.630;2023-04-25T03:21:25;9.50;99.90
21568;DHT22;10944;42.590;12.630;2023-04-25T03:23:52;9.50;99.90
21568;DHT22;10944;42.590;12.630;2023-04-25T03:26:17;9.50;99.90
21568;DHT22;10944;42.590;12.630;2023-04-25T03:28:43;9.60;99.90
21568;DHT22;10944;42.590;12.630;2023-04-25T03:31:09;9.60;99.90
21568;DHT22;10944;42.590;12.630;2023-04-25T03:33:35;9.60;99.90
21568;DHT22;10944;42.590;12.630;2023-04-25T03:36:00;9.60;99.90
21568;DHT22;10944;42.590;12.630;2023-04-25T03:38:26;9.60;99.90
21568;DHT22;10944;42.590;12.630;2023-04-25T03:40:53;9.70;99.90
21568;DHT22;10944;42.590;12.630;2023-04-25T03:43:19;9.80;99.90
21568;DHT22;10944;42.590;12.630;2023-04-25T03:45:45;10.00;99.90
21568;DHT22;10944;42.590;12.630;2023-04-25T03:48:11;10.10;99.90
21568;DHT22;10944;42.590;12.630;2023-04-25T03:50:37;10.10;99.90
21568;DHT22;10944;42.590;12.630;2023-04-25T03:53:03;10.10;99.90
21568;DHT22;10944;42.590;12.630;2023-04-25T03:55:28;10.00;99.90
21568;DHT22;10944;42.590;12.630;2023-04-25T03:57:54;10.00;99.90
21568;DHT22;10944;42.590;12.630;2023-04-25T04:00:20;9.90;99.90
21568;DHT22;10944;42.590;12.630;2023-04-25T04:02:45;9.90;99.90
21568;DHT22;10944;42.590;12.630;2023-04-25T04:05:11;9.90;99.90
21568;DHT22;10944;42.590;12.630;2023-04-25T04:07:37;9.90;99.90
21568;DHT22;10944;42.590;12.630;2023-04-25T04:10:14;9.90;99.90
21568;DHT22;10944;42.590;12.630;2023-04-25T04:12:40;10.10;99.90
21568;DHT22;10944;42.590;12.630;2023-04-25T04:15:06;10.20;99.90
21568;DHT22;10944;42.590;12.630;2023-04-25T04:17:32;10.30;99.90
21568;DHT22;10944;42.590;12.630;2023-04-25T04:19:58;10.30;99.90
21568;DHT22;10944;42.590;12.630;2023-04-25T04:22:24;10.30;99.90
21568;DHT22;10944;42.590;12.630;2023-04-25T04:24:50;10.30;99.90
21568;DHT22;10944;42.590;12.630;2023-04-25T04:27:19;10.20;99.90
21568;DHT22;10944;42.590;12.630;2023-04-25T04:29:45;10.20;99.90
21568;DHT22;10944;42.590;12.630;2023-04-25T04:32:13;10.30;99.90
21568;DHT22;10944;42.590;12.630;2023-04-25T04:34:39;10.40;99.90
21568;DHT22;10944;42.590;12.630;2023-04-25T04:37:06;10.40;99.90
21568;DHT22;10944;42.590;12.630;2023-04-25T04:39:33;10.30;99.90
21568;DHT22;10944;42.590;12.630;2023-04-25T04:41:59;10.30;99.90
21568;DHT22;10944;42.590;12.630;2023-04-25T04:44:27;10.20;99.90
21568;DHT22;10944;42.590;12.630;2023-04-25T04:46:54;10.30;99.90
21568;DHT22;10944;42.590;12.630;2023-04-25T04:49:20;10.30;99.90
21568;DHT22;10944;42.590;12.630;2023-04-25T04:51:46;10.40;99.90
21568;DHT22;10944;42.590;12.630;2023-04-25T04:54:12;10.50;99.90
21568;DHT22;10944;42.590;12.630;2023-04-25T04:56:38;10.50;99.90
21568;DHT22;10944;42.590;12.630;2023-04-25T04:59:04;10.60;99.90
21568;DHT22;10944;42.590;12.630;2023-04-25T05:01:29;10.80;99.90
21568;DHT22;10944;42.590;12.630;2023-04-25T05:03:56;10.90;99.90
21568;DHT22;10944;42.590;12.630;2023-04-25T05:06:26;11.10;99.90
21568;DHT22;10944;42.590;12.630;2023-04-25T05:08:52;11.20;99.90
21568;DHT22;10944;42.590;12.630;2023-04-25T05:11:19;11.30;99.90
21568;DHT22;10944;42.590;12.630;2023-04-25T05:13:44;11.40;99.90
21568;DHT22;10944;42.590;12.630;2023-04-25T05:16:11;11.50;99.90
21568;DHT22;10944;42.590;12.630;2023-04-25T05:18:38;11.60;99.90
21568;DHT22;10944;42.590;12.630;2023-04-25T05:21:04;11.60;99.90
21568;DHT22;10944;42.590;12.630;2023-04-25T05:23:30;11.60;99.90
21568;DHT22;10944;42.590;12.630;2023-04-25T05:25:56;11.60;99.90
21568;DHT22;10944;42.590;12.630;2023-04-25T05:28:22;11.60;99.90
21568;DHT22;10944;42.590;12.630;2023-04-25T05:30:48;11.70;99.90
21568;DHT22;10944;42.590;12.630;2023-04-25T05:33:14;11.80;99.90
21568;DHT22;10944;42.590;12.630;2023-04-25T05:35:40;12.00;99.90
21568;DHT22;10944;42.590;12.630;2023-04-25T05:38:05;12.20;99.90
21568;DHT22;10944;42.590;12.630;2023-04-25T05:40:32;12.30;99.90
21568;DHT22;10944;42.590;12.630;2023-04-25T05:42:57;12.40;99.90
21568;DHT22;10944;42.590;12.630;2023-04-25T05:45:23;12.50;99.90
21568;DHT22;10944;42.590;12.630;2023-04-25T05:47:49;12.70;99.90
21568;DHT22;10944;42.590;12.630;2023-04-25T05:50:15;13.10;99.90
21568;DHT22;10944;42.590;12.630;2023-04-25T05:52:41;13.10;99.90
21568;DHT22;10944;42.590;12.630;2023-04-25T05:55:06;13.20;99.90
21568;DHT22;10944;42.590;12.630;2023-04-25T05:57:32;13.40;99.90
21568;DHT22;10944;42.590;12.630;2023-04-25T05:59:58;13.60;99.90
21568;DHT22;10944;42.590;12.630;2023-04-25T06:02:24;13.60;99.90
21568;DHT22;10944;42.590;12.630;2023-04-25T06:04:50;13.40;99.90
21568;DHT22;10944;42.590;12.630;2023-04-25T06:07:17;13.40;99.90
21568;DHT22;10944;42.590;12.630;2023-04-25T06:09:43;13.50;99.90
21568;DHT22;10944;42.590;12.630;2023-04-25T06:12:09;13.50;99.90
21568;DHT22;10944;42.590;12.630;2023-04-25T06:14:35;13.40;99.90
21568;DHT22;10944;42.590;12.630;2023-04-25T06:17:01;13.40;99.90
21568;DHT22;10944;42.590;12.630;2023-04-25T06:19:32;13.40;99.90
21568;DHT22;10944;42.590;12.630;2023-04-25T06:21:58;13.50;99.90
21568;DHT22;10944;42.590;12.630;2023-04-25T06:24:24;13.60;99.90
21568;DHT22;10944;42.590;12.630;2023-04-25T06:26:50;13.60;99.90
21568;DHT22;10944;42.590;12.630;2023-04-25T06:29:15;13.70;99.90
21568;DHT22;10944;42.590;12.630;2023-04-25T06:31:41;14.20;99.90
21568;DHT22;10944;42.590;12.630;2023-04-25T06:34:07;14.50;99.90
21568;DHT22;10944;42.590;12.630;2023-04-25T06:36:32;14.60;99.90
21568;DHT22;10944;42.590;12.630;2023-04-25T06:38:58;14.70;99.90
21568;DHT22;10944;42.590;12.630;2023-04-25T06:41:24;14.90;99.90
21568;DHT22;10944;42.590;12.630;2023-04-25T06:43:50;14.90;99.90
21568;DHT22;10944;42.590;12.630;2023-04-25T06:46:15;15.00;99.90
21568;DHT22;10944;42.590;12.630;2023-04-25T06:48:41;15.00;99.90
21568;DHT22;10944;42.590;12.630;2023-04-25T06:51:07;15.10;99.90
21568;DHT22;10944;42.590;12.630;2023-04-25T06:53:32;15.40;99.90
21568;DHT22;10944;42.590;12.630;2023-04-25T06:55:58;15.60;99.90
21568;DHT22;10944;42.590;12.630;2023-04-25T06:58:24;15.80;99.90
21568;DHT22;10944;42.590;12.630;2023-04-25T07:00:49;15.50;99.90
21568;DHT22;10944;42.590;12.630;2023-04-25T07:03:15;15.20;99.90
21568;DHT22;10944;42.590;12.630;2023-04-25T07:05:41;15.00;99.90
21568;DHT22;10944;42.590;12.630;2023-04-25T07:08:06;15.10;99.90
21568;DHT22;10944;42.590;12.630;2023-04-25T07:10:32;15.20;99.90
21568;DHT22;10944;42.590;12.630;2023-04-25T07:12:58;15.40;99.90
21568;DHT22;10944;42.590;12.630;2023-04-25T07:15:23;15.80;99.90
21568;DHT22;10944;42.590;12.630;2023-04-25T07:17:50;16.00;99.90
21568;DHT22;10944;42.590;12.630;2023-04-25T07:20:16;16.10;99.90
21568;DHT22;10944;42.590;12.630;2023-04-25T07:22:42;16.30;99.90
21568;DHT22;10944;42.590;12.630;2023-04-25T07:25:08;16.40;99.90
21568;DHT22;10944;42.590;12.630;2023-04-25T07:27:34;16.50;99.90
21568;DHT22;10944;42.590;12.630;2023-04-25T07:30:00;16.80;99.90
21568;DHT22;10944;42.590;12.630;2023-04-25T07:32:25;16.90;99.90
21568;DHT22;10944;42.590;12.630;2023-04-25T07:34:52;16.80;99.90
21568;DHT22;10944;42.590;12.630;2023-04-25T07:37:17;16.70;99.90
21568;DHT22;10944;42.590;12.630;2023-04-25T07:39:44;16.50;99.90
21568;DHT22;10944;42.590;12.630;2023-04-25T07:42:12;16.50;99.90
21568;DHT22;10944;42.590;12.630;2023-04-25T07:44:38;16.70;99.90
21568;DHT22;10944;42.590;12.630;2023-04-25T07:47:09;16.60;99.90
21568;DHT22;10944;42.590;12.630;2023-04-25T07:49:37;16.50;99.90
21568;DHT22;10944;42.590;12.630;2023-04-25T07:52:04;16.50;99.90
21568;DHT22;10944;42.590;12.630;2023-04-25T07:54:31;16.90;99.90
21568;DHT22;10944;42.590;12.630;2023-04-25T07:56:58;17.10;99.90
21568;DHT22;10944;42.590;12.630;2023-04-25T07:59:23;17.30;99.90
21568;DHT22;10944;42.590;12.630;2023-04-25T08:01:49;17.60;99.90
21568;DHT22;10944;42.590;12.630;2023-04-25T08:04:15;17.60;99.90
21568;DHT22;10944;42.590;12.630;2023-04-25T08:06:41;17.60;99.90
21568;DHT22;10944;42.590;12.630;2023-04-25T08:09:07;17.90;99.90
21568;DHT22;10944;42.590;12.630;2023-04-25T08:11:35;17.90;99.90
21568;DHT22;10944;42.590;12.630;2023-04-25T08:14:00;17.60;99.90
21568;DHT22;10944;42.590;12.630;2023-04-25T08:16:27;17.80;99.90
21568;DHT22;10944;42.590;12.630;2023-04-25T08:18:53;17.80;99.90
21568;DHT22;10944;42.590;12.630;2023-04-25T08:21:18;17.80;99.90
21568;DHT22;10944;42.590;12.630;2023-04-25T08:23:44;17.70;99.90
21568;DHT22;10944;42.590;12.630;2023-04-25T08:26:10;17.70;99.90
21568;DHT22;10944;42.590;12.630;2023-04-25T08:28:36;17.70;99.90
21568;DHT22;10944;42.590;12.630;2023-04-25T08:31:01;17.90;99.90
21568;DHT22;10944;42.590;12.630;2023-04-25T08:33:27;18.00;99.90
21568;DHT22;10944;42.590;12.630;2023-04-25T08:35:54;18.10;99.90
21568;DHT22;10944;42.590;12.630;2023-04-25T08:38:20;18.00;99.90
21568;DHT22;10944;42.590;12.630;2023-04-25T08:40:49;18.30;99.90
21568;DHT22;10944;42.590;12.630;2023-04-25T08:43:18;18.20;99.90
21568;DHT22;10944;42.590;12.630;2023-04-25T08:45:44;18.00;99.90
21568;DHT22;10944;42.590;12.630;2023-04-25T08:48:13;18.10;99.90
21568;DHT22;10944;42.590;12.630;2023-04-25T08:50:43;18.10;99.90
21568;DHT22;10944;42.590;12.630;2023-04-25T08:53:12;18.40;99.90
21568;DHT22;10944;42.590;12.630;2023-04-25T08:55:43;18.50;99.90
21568;DHT22;10944;42.590;12.630;2023-04-25T08:58:11;18.80;99.90
21568;DHT22;10944;42.590;12.630;2023-04-25T09:00:37;18.70;99.90
21568;DHT22;10944;42.590;12.630;2023-04-25T09:03:03;18.90;99.90
21568;DHT22;10944;42.590;12.630;2023-04-25T09:05:29;18.90;99.90
21568;DHT22;10944;42.590;12.630;2023-04-25T09:07:55;18.70;99.90
21568;DHT22;10944;42.590;12.630;2023-04-25T09:10:22;18.80;99.90
21568;DHT22;10944;42.590;12.630;2023-04-25T09:15:29;18.70;99.90
21568;DHT22;10944;42.590;12.630;2023-04-25T09:17:56;18.60;99.90
21568;DHT22;10944;42.590;12.630;2023-04-25T09:20:22;18.40;99.90
21568;DHT22;10944;42.590;12.630;2023-04-25T09:22:48;18.60;99.90
21568;DHT22;10944;42.590;12.630;2023-04-25T09:25:13;18.80;99.90
21568;DHT22;10944;42.590;12.630;2023-04-25T09:27:53;18.50;98.90
21568;DHT22;10944;42.590;12.630;2023-04-25T09:30:29;18.30;99.90
21568;DHT22;10944;42.590;12.630;2023-04-25T09:33:10;18.40;99.90
21568;DHT22;10944;42.590;12.630;2023-04-25T09:35:41;18.20;99.90
21568;DHT22;10944;42.590;12.630;2023-04-25T09:38:14;18.10;99.90
21568;DHT22;10944;42.590;12.630;2023-04-25T09:40:45;18.20;99.90
21568;DHT22;10944;42.590;12.630;2023-04-25T09:43:21;18.20;99.90
21568;DHT22;10944;42.590;12.630;2023-04-25T09:45:47;17.90;99.90
21568;DHT22;10944;42.590;12.630;2023-04-25T09:48:20;17.80;99.90
21568;DHT22;10944;42.590;12.630;2023-04-25T09:53:35;17.50;99.90
21568;DHT22;10944;42.590;12.630;2023-04-25T09:56:04;17.60;99.90
21568;DHT22;10944;42.590;12.630;2023-04-25T09:58:31;17.50;99.90
21568;DHT22;10944;42.590;12.630;2023-04-25T10:01:01;17.60;99.90
21568;DHT22;10944;42.590;12.630;2023-04-25T10:03:30;17.50;99.90
21568;DHT22;10944;42.590;12.630;2023-04-25T10:05:59;17.50;99.90
21568;DHT22;10944;42.590;12.630;2023-04-25T10:08:32;17.60;99.90
21568;DHT22;10944;42.590;12.630;2023-04-25T10:11:03;17.60;99.90
21568;DHT22;10944;42.590;12.630;2023-04-25T10:13:30;17.80;99.90
21568;DHT22;10944;42.590;12.630;2023-04-25T10:16:00;17.90;99.90
21568;DHT22;10944;42.590;12.630;2023-04-25T10:18:27;18.00;99.90
21568;DHT22;10944;42.590;12.630;2023-04-25T10:21:00;18.10;99.90
21568;DHT22;10944;42.590;12.630;2023-04-25T10:23:27;18.20;99.90
21568;DHT22;10944;42.590;12.630;2023-04-25T10:25:55;18.30;99.80
21568;DHT22;10944;42.590;12.630;2023-04-25T10:28:21;18.40;99.90
21568;DHT22;10944;42.590;12.630;2023-04-25T10:31:08;18.50;99.90
21568;DHT22;10944;42.590;12.630;2023-04-25T10:33:35;18.60;99.90
21568;DHT22;10944;42.590;12.630;2023-04-25T10:36:34;18.70;99.90
21568;DHT22;10944;42.590;12.630;2023-04-25T10:39:04;18.60;99.80
21568;DHT22;10944;42.590;12.630;2023-04-25T10:41:47;18.60;99.40
21568;DHT22;10944;42.590;12.630;2023-04-25T10:44:14;18.50;99.90
21568;DHT22;10944;42.590;12.630;2023-04-25T10:46:40;18.60;99.90
21568;DHT22;10944;42.590;12.630;2023-04-25T10:49:08;18.60;99.90
21568;DHT22;10944;42.590;12.630;2023-04-25T10:51:36;18.40;99.70
21568;DHT22;10944;42.590;12.630;2023-04-25T10:54:04;18.30;99.50
21568;DHT22;10944;42.590;12.630;2023-04-25T10:59:05;18.30;99.70
21568;DHT22;10944;42.590;12.630;2023-04-25T11:04:30;18.60;99.70
21568;DHT22;10944;42.590;12.630;2023-04-25T11:09:23;18.70;99.90
21568;DHT22;10944;42.590;12.630;2023-04-25T11:11:59;18.70;99.90
21568;DHT22;10944;42.590;12.630;2023-04-25T11:14:26;18.90;99.90
21568;DHT22;10944;42.590;12.630;2023-04-25T11:16:59;19.40;99.60
21568;DHT22;10944;42.590;12.630;2023-04-25T11:19:28;19.40;99.00
21568;DHT22;10944;42.590;12.630;2023-04-25T11:21:58;19.50;98.60
21568;DHT22;10944;42.590;12.630;2023-04-25T11:24:32;19.50;98.30
21568;DHT22;10944;42.590;12.630;2023-04-25T11:27:02;19.20;98.00
21568;DHT22;10944;42.590;12.630;2023-04-25T11:29:32;19.20;98.30
21568;DHT22;10944;42.590;12.630;2023-04-25T11:32:00;19.20;98.70
21568;DHT22;10944;42.590;12.630;2023-04-25T11:34:27;19.10;98.70
21568;DHT22;10944;42.590;12.630;2023-04-25T11:36:56;19.00;98.70
21568;DHT22;10944;42.590;12.630;2023-04-25T11:39:23;18.90;97.90
21568;DHT22;10944;42.590;12.630;2023-04-25T11:41:49;18.80;98.20
21568;DHT22;10944;42.590;12.630;2023-04-25T11:44:16;18.60;98.10
21568;DHT22;10944;42.590;12.630;2023-04-25T11:46:43;18.40;98.80
21568;DHT22;10944;42.590;12.630;2023-04-25T11:49:09;18.20;98.30
21568;DHT22;10944;42.590;12.630;2023-04-25T11:51:46;18.10;97.80
21568;DHT22;10944;42.590;12.630;2023-04-25T11:54:12;17.90;99.10
21568;DHT22;10944;42.590;12.630;2023-04-25T11:56:45;17.90;99.90
21568;DHT22;10944;42.590;12.630;2023-04-25T11:59:11;17.80;99.90
21568;DHT22;10944;42.590;12.630;2023-04-25T12:01:39;17.70;99.90
21568;DHT22;10944;42.590;12.630;2023-04-25T12:04:20;17.50;99.90
21568;DHT22;10944;42.590;12.630;2023-04-25T12:06:51;17.40;99.90
21568;DHT22;10944;42.590;12.630;2023-04-25T12:09:20;17.40;99.90
21568;DHT22;10944;42.590;12.630;2023-04-25T12:11:54;17.20;99.90
21568;DHT22;10944;42.590;12.630;2023-04-25T12:14:28;17.20;99.90
21568;DHT22;10944;42.590;12.630;2023-04-25T12:17:03;17.10;99.90
21568;DHT22;10944;42.590;12.630;2023-04-25T12:19:34;17.30;99.90
21568;DHT22;10944;42.590;12.630;2023-04-25T12:22:01;17.40;99.90
21568;DHT22;10944;42.590;12.630;2023-04-25T12:24:28;17.70;99.90
21568;DHT22;10944;42.590;12.630;2023-04-25T12:27:03;18.10;99.90
21568;DHT22;10944;42.590;12.630;2023-04-25T12:29:31;18.20;98.40
21568;DHT22;10944;42.590;12.630;2023-04-25T12:31:57;18.60;98.80
21568;DHT22;10944;42.590;12.630;2023-04-25T12:34:23;19.00;98.10
21568;DHT22;10944;42.590;12.630;2023-04-25T12:36:51;19.20;97.90
21568;DHT22;10944;42.590;12.630;2023-04-25T12:39:18;19.30;97.40
21568;DHT22;10944;42.590;12.630;2023-04-25T12:41:45;19.30;97.30
21568;DHT22;10944;42.590;12.630;2023-04-25T12:44:12;19.30;97.80
21568;DHT22;10944;42.590;12.630;2023-04-25T12:46:38;19.40;97.90
21568;DHT22;10944;42.590;12.630;2023-04-25T12:49:04;19.70;98.40
21568;DHT22;10944;42.590;12.630;2023-04-25T12:51:31;19.60;98.40
21568;DHT22;10944;42.590;12.630;2023-04-25T12:53:58;19.80;99.90
21568;DHT22;10944;42.590;12.630;2023-04-25T12:56:26;19.90;99.90
21568;DHT22;10944;42.590;12.630;2023-04-25T12:58:53;20.00;99.40
21568;DHT22;10944;42.590;12.630;2023-04-25T13:01:19;20.10;99.60
21568;DHT22;10944;42.590;12.630;2023-04-25T13:03:46;20.20;99.60
21568;DHT22;10944;42.590;12.630;2023-04-25T13:06:11;20.10;98.50
21568;DHT22;10944;42.590;12.630;2023-04-25T13:08:38;19.90;98.60
21568;DHT22;10944;42.590;12.630;2023-04-25T13:11:05;20.00;99.90
21568;DHT22;10944;42.590;12.630;2023-04-25T13:13:31;20.20;99.70
21568;DHT22;10944;42.590;12.630;2023-04-25T13:15:58;20.30;98.40
21568;DHT22;10944;42.590;12.630;2023-04-25T13:18:24;20.20;99.00
21568;DHT22;10944;42.590;12.630;2023-04-25T13:20:55;20.40;99.80
21568;DHT22;10944;42.590;12.630;2023-04-25T13:23:22;20.50;99.90
21568;DHT22;10944;42.590;12.630;2023-04-25T13:25:47;20.50;99.90
21568;DHT22;10944;42.590;12.630;2023-04-25T13:28:13;20.60;99.20
21568;DHT22;10944;42.590;12.630;2023-04-25T13:30:40;20.60;98.40
21568;DHT22;10944;42.590;12.630;2023-04-25T13:33:06;20.50;98.10
21568;DHT22;10944;42.590;12.630;2023-04-25T13:35:33;20.40;98.80
21568;DHT22;10944;42.590;12.630;2023-04-25T13:37:59;20.50;98.20
21568;DHT22;10944;42.590;12.630;2023-04-25T13:40:26;20.40;98.10
21568;DHT22;10944;42.590;12.630;2023-04-25T13:42:52;20.30;96.80
21568;DHT22;10944;42.590;12.630;2023-04-25T13:45:19;20.20;97.90
21568;DHT22;10944;42.590;12.630;2023-04-25T13:47:45;19.90;96.80
21568;DHT22;10944;42.590;12.630;2023-04-25T13:50:11;19.80;97.70
21568;DHT22;10944;42.590;12.630;2023-04-25T13:52:37;19.80;97.10
21568;DHT22;10944;42.590;12.630;2023-04-25T13:55:02;19.70;97.90
21568;DHT22;10944;42.590;12.630;2023-04-25T13:57:30;19.60;98.10
21568;DHT22;10944;42.590;12.630;2023-04-25T13:59:56;19.50;98.40
21568;DHT22;10944;42.590;12.630;2023-04-25T14:02:22;19.20;97.50
21568;DHT22;10944;42.590;12.630;2023-04-25T14:04:47;19.10;98.70
21568;DHT22;10944;42.590;12.630;2023-04-25T14:07:14;19.10;98.80
21568;DHT22;10944;42.590;12.630;2023-04-25T14:09:41;19.20;98.50
21568;DHT22;10944;42.590;12.630;2023-04-25T14:12:07;19.40;98.50
21568;DHT22;10944;42.590;12.630;2023-04-25T14:14:33;19.60;97.80
21568;DHT22;10944;42.590;12.630;2023-04-25T14:16:59;19.60;97.40
21568;DHT22;10944;42.590;12.630;2023-04-25T14:19:24;19.70;98.30
21568;DHT22;10944;42.590;12.630;2023-04-25T14:21:50;19.80;97.30
21568;DHT22;10944;42.590;12.630;2023-04-25T14:24:16;20.00;96.60
21568;DHT22;10944;42.590;12.630;2023-04-25T14:26:42;19.90;95.00
21568;DHT22;10944;42.590;12.630;2023-04-25T14:29:10;19.80;94.10
21568;DHT22;10944;42.590;12.630;2023-04-25T14:31:38;19.80;92.70
21568;DHT22;10944;42.590;12.630;2023-04-25T14:34:07;19.60;92.50
21568;DHT22;10944;42.590;12.630;2023-04-25T14:36:33;19.50;92.80
21568;DHT22;10944;42.590;12.630;2023-04-25T14:38:59;19.80;92.90
21568;DHT22;10944;42.590;12.630;2023-04-25T14:41:25;19.90;92.20
21568;DHT22;10944;42.590;12.630;2023-04-25T14:43:51;20.00;92.70
21568;DHT22;10944;42.590;12.630;2023-04-25T14:46:19;20.10;92.40
21568;DHT22;10944;42.590;12.630;2023-04-25T14:48:45;20.10;92.70
21568;DHT22;10944;42.590;12.630;2023-04-25T14:51:11;19.90;91.90
21568;DHT22;10944;42.590;12.630;2023-04-25T14:53:37;19.80;92.60
21568;DHT22;10944;42.590;12.630;2023-04-25T14:56:03;19.70;92.00
21568;DHT22;10944;42.590;12.630;2023-04-25T14:58:28;19.60;92.10
21568;DHT22;10944;42.590;12.630;2023-04-25T15:00:54;19.40;92.00
21568;DHT22;10944;42.590;12.630;2023-04-25T15:03:20;19.40;93.00
21568;DHT22;10944;42.590;12.630;2023-04-25T15:05:46;19.20;92.30
21568;DHT22;10944;42.590;12.630;2023-04-25T15:08:12;19.00;92.50
21568;DHT22;10944;42.590;12.630;2023-04-25T15:10:37;18.90;92.40
21568;DHT22;10944;42.590;12.630;2023-04-25T15:13:04;18.90;92.10
21568;DHT22;10944;42.590;12.630;2023-04-25T15:15:29;19.00;92.80
21568;DHT22;10944;42.590;12.630;2023-04-25T15:17:56;19.30;91.80
21568;DHT22;10944;42.590;12.630;2023-04-25T15:20:22;19.40;91.60
21568;DHT22;10944;42.590;12.630;2023-04-25T15:22:48;19.40;91.60
21568;DHT22;10944;42.590;12.630;2023-04-25T15:25:15;19.30;92.20
21568;DHT22;10944;42.590;12.630;2023-04-25T15:27:43;19.30;92.00
21568;DHT22;10944;42.590;12.630;2023-04-25T15:30:11;19.30;91.90